sensor_id;sensor_type;location;lat;lon;timestamp;temperature;humidity
75615;DHT22;64199;48.578;-4.520;2022-12-19T00:01:49;22.30;45.50
75615;DHT22;64199;48.578;-4.520;2022-12-19T00:04:15;22.30;45.50
75615;DHT22;64199;48.578;-4.520;2022-12-19T00:06:44;22.30;45.60
75615;DHT22;64199;48.578;-4.520;2022-12-19T00:09:11;22.30;45.70
75615;DHT22;64199;48.578;-4.520;2022-12-19T00:11:38;22.20;45.70
75615;DHT22;64199;48.578;-4.520;2022-12-19T00:14:10;22.20;45.70
75615;DHT22;64199;48.578;-4.520;2022-12-19T00:16:36;22.10;45.70
75615;DHT22;64199;48.578;-4.520;2022-12-19T00:19:02;22.10;45.80
75615;DHT22;64199;48.578;-4.520;2022-12-19T00:21:30;22.10;45.90
75615;DHT22;64199;48.578;-4.520;2022-12-19T00:23:56;22.00;45.80
75615;DHT22;64199;48.578;-4.520;2022-12-19T00:26:27;22.00;45.70
75615;DHT22;64199;48.578;-4.520;2022-12-19T00:28:57;21.90;45.90
75615;DHT22;64199;48.578;-4.520;2022-12-19T00:31:25;21.90;46.00
75615;DHT22;64199;48.578;-4.520;2022-12-19T00:33:52;21.90;46.10
75615;DHT22;64199;48.578;-4.520;2022-12-19T00:36:23;21.80;46.00
75615;DHT22;64199;48.578;-4.520;2022-12-19T00:38:50;21.80;45.90
75615;DHT22;64199;48.578;-4.520;2022-12-19T00:41:22;21.80;46.00
75615;DHT22;64199;48.578;-4.520;2022-12-19T00:43:55;21.80;46.00
75615;DHT22;64199;48.578;-4.520;2022-12-19T00:46:22;21.70;46.00
75615;DHT22;64199;48.578;-4.520;2022-12-19T00:48:48;21.70;46.10
75615;DHT22;64199;48.578;-4.520;2022-12-19T00:51:16;21.60;45.90
75615;DHT22;64199;48.578;-4.520;2022-12-19T00:53:43;21.60;46.00
75615;DHT22;64199;48.578;-4.520;2022-12-19T00:56:15;21.60;46.10
75615;DHT22;64199;48.578;-4.520;2022-12-19T00:58:42;21.60;46.10
75615;DHT22;64199;48.578;-4.520;2022-12-19T01:01:16;21.50;46.10
75615;DHT22;64199;48.578;-4.520;2022-12-19T01:03:42;21.50;46.20
75615;DHT22;64199;48.578;-4.520;2022-12-19T01:06:09;21.50;46.20
75615;DHT22;64199;48.578;-4.520;2022-12-19T01:08:36;21.40;46.10
75615;DHT22;64199;48.578;-4.520;2022-12-19T01:11:03;21.40;46.20
75615;DHT22;64199;48.578;-4.520;2022-12-19T01:13:31;21.40;46.20
75615;DHT22;64199;48.578;-4.520;2022-12-19T01:16:07;21.40;46.30
75615;DHT22;64199;48.578;-4.520;2022-12-19T01:18:34;21.40;46.30
75615;DHT22;64199;48.578;-4.520;2022-12-19T01:21:03;21.40;46.30
75615;DHT22;64199;48.578;-4.520;2022-12-19T01:23:29;21.40;46.30
75615;DHT22;64199;48.578;-4.520;2022-12-19T01:25:56;21.40;46.30
75615;DHT22;64199;48.578;-4.520;2022-12-19T01:28:22;21.50;46.30
75615;DHT22;64199;48.578;-4.520;2022-12-19T01:30:49;21.50;46.30
75615;DHT22;64199;48.578;-4.520;2022-12-19T01:33:16;21.50;46.30
75615;DHT22;64199;48.578;-4.520;2022-12-19T01:35:44;21.50;46.40
75615;DHT22;64199;48.578;-4.520;2022-12-19T01:38:20;21.50;46.40
75615;DHT22;64199;48.578;-4.520;2022-12-19T01:40:51;21.50;46.40
75615;DHT22;64199;48.578;-4.520;2022-12-19T01:43:18;21.50;46.50
75615;DHT22;64199;48.578;-4.520;2022-12-19T01:45:45;21.50;46.50
75615;DHT22;64199;48.578;-4.520;2022-12-19T01:48:34;21.60;46.50
75615;DHT22;64199;48.578;-4.520;2022-12-19T01:51:06;21.60;46.60
75615;DHT22;64199;48.578;-4.520;2022-12-19T01:53:42;21.50;46.50
75615;DHT22;64199;48.578;-4.520;2022-12-19T01:56:10;21.60;46.60
75615;DHT22;64199;48.578;-4.520;2022-12-19T01:58:40;21.60;46.70
75615;DHT22;64199;48.578;-4.520;2022-12-19T02:01:07;21.60;46.70
75615;DHT22;64199;48.578;-4.520;2022-12-19T02:03:35;21.60;46.70
75615;DHT22;64199;48.578;-4.520;2022-12-19T02:06:04;21.60;46.80
75615;DHT22;64199;48.578;-4.520;2022-12-19T02:08:30;21.60;46.80
75615;DHT22;64199;48.578;-4.520;2022-12-19T02:10:56;21.70;46.80
75615;DHT22;64199;48.578;-4.520;2022-12-19T02:13:23;21.70;46.90
75615;DHT22;64199;48.578;-4.520;2022-12-19T02:21:42;21.70;47.10
75615;DHT22;64199;48.578;-4.520;2022-12-19T02:27:06;21.70;47.10
75615;DHT22;64199;48.578;-4.520;2022-12-19T02:29:59;21.70;47.10
75615;DHT22;64199;48.578;-4.520;2022-12-19T02:32:37;21.80;47.20
75615;DHT22;64199;48.578;-4.520;2022-12-19T02:35:18;21.80;47.10
75615;DHT22;64199;48.578;-4.520;2022-12-19T02:38:03;21.80;47.10
75615;DHT22;64199;48.578;-4.520;2022-12-19T02:40:38;21.80;47.00
75615;DHT22;64199;48.578;-4.520;2022-12-19T02:43:05;21.80;47.00
75615;DHT22;64199;48.578;-4.520;2022-12-19T02:45:34;21.90;47.00
75615;DHT22;64199;48.578;-4.520;2022-12-19T02:48:02;21.90;47.00
75615;DHT22;64199;48.578;-4.520;2022-12-19T02:50:41;21.90;47.10
75615;DHT22;64199;48.578;-4.520;2022-12-19T02:53:09;21.90;47.10
75615;DHT22;64199;48.578;-4.520;2022-12-19T02:55:43;21.90;47.10
75615;DHT22;64199;48.578;-4.520;2022-12-19T03:01:01;21.90;47.10
75615;DHT22;64199;48.578;-4.520;2022-12-19T03:06:12;22.00;47.10
75615;DHT22;64199;48.578;-4.520;2022-12-19T03:08:45;22.00;47.10
75615;DHT22;64199;48.578;-4.520;2022-12-19T03:11:13;22.00;47.00
75615;DHT22;64199;48.578;-4.520;2022-12-19T03:13:59;22.10;47.10
75615;DHT22;64199;48.578;-4.520;2022-12-19T03:16:27;22.10;47.10
75615;DHT22;64199;48.578;-4.520;2022-12-19T03:18:56;22.10;47.00
75615;DHT22;64199;48.578;-4.520;2022-12-19T03:21:33;22.10;47.00
75615;DHT22;64199;48.578;-4.520;2022-12-19T03:24:00;22.10;47.00
75615;DHT22;64199;48.578;-4.520;2022-12-19T03:26:35;22.20;46.90
75615;DHT22;64199;48.578;-4.520;2022-12-19T03:32:06;22.10;47.00
75615;DHT22;64199;48.578;-4.520;2022-12-19T03:37:09;22.20;46.90
75615;DHT22;64199;48.578;-4.520;2022-12-19T03:39:42;22.20;46.90
75615;DHT22;64199;48.578;-4.520;2022-12-19T03:42:11;22.20;46.90
75615;DHT22;64199;48.578;-4.520;2022-12-19T03:44:56;22.30;47.00
75615;DHT22;64199;48.578;-4.520;2022-12-19T03:47:54;22.30;46.90
75615;DHT22;64199;48.578;-4.520;2022-12-19T03:50:24;22.30;46.80
75615;DHT22;64199;48.578;-4.520;2022-12-19T03:56:04;22.30;46.70
75615;DHT22;64199;48.578;-4.520;2022-12-19T03:58:39;22.30;46.80
75615;DHT22;64199;48.578;-4.520;2022-12-19T04:01:10;22.30;46.70
75615;DHT22;64199;48.578;-4.520;2022-12-19T04:03:38;22.40;46.80
75615;DHT22;64199;48.578;-4.520;2022-12-19T04:06:04;22.40;46.80
75615;DHT22;64199;48.578;-4.520;2022-12-19T04:08:32;22.40;46.70
75615;DHT22;64199;48.578;-4.520;2022-12-19T04:11:06;22.40;46.70
75615;DHT22;64199;48.578;-4.520;2022-12-19T04:13:49;22.40;46.70
75615;DHT22;64199;48.578;-4.520;2022-12-19T04:19:16;22.40;46.70
75615;DHT22;64199;48.578;-4.520;2022-12-19T04:21:48;22.50;46.70
75615;DHT22;64199;48.578;-4.520;2022-12-19T04:24:24;22.40;46.70
75615;DHT22;64199;48.578;-4.520;2022-12-19T04:26:53;22.50;46.70
75615;DHT22;64199;48.578;-4.520;2022-12-19T04:29:24;22.50;46.60
75615;DHT22;64199;48.578;-4.520;2022-12-19T04:31:52;22.50;46.60
75615;DHT22;64199;48.578;-4.520;2022-12-19T04:34:19;22.50;46.70
75615;DHT22;64199;48.578;-4.520;2022-12-19T04:36:46;22.60;46.70
75615;DHT22;64199;48.578;-4.520;2022-12-19T04:39:12;22.60;46.60
75615;DHT22;64199;48.578;-4.520;2022-12-19T04:41:38;22.60;46.70
75615;DHT22;64199;48.578;-4.520;2022-12-19T04:44:04;22.60;46.60
75615;DHT22;64199;48.578;-4.520;2022-12-19T04:46:36;22.60;46.60
75615;DHT22;64199;48.578;-4.520;2022-12-19T04:49:02;22.70;46.70
75615;DHT22;64199;48.578;-4.520;2022-12-19T04:51:38;22.70;46.60
75615;DHT22;64199;48.578;-4.520;2022-12-19T04:54:03;22.70;46.60
75615;DHT22;64199;48.578;-4.520;2022-12-19T04:56:35;22.70;46.50
75615;DHT22;64199;48.578;-4.520;2022-12-19T04:59:00;22.70;46.50
75615;DHT22;64199;48.578;-4.520;2022-12-19T05:01:30;22.70;46.50
75615;DHT22;64199;48.578;-4.520;2022-12-19T05:03:55;22.60;46.50
75615;DHT22;64199;48.578;-4.520;2022-12-19T05:06:22;22.60;46.60
75615;DHT22;64199;48.578;-4.520;2022-12-19T05:08:48;22.60;46.60
75615;DHT22;64199;48.578;-4.520;2022-12-19T05:11:16;22.60;46.60
75615;DHT22;64199;48.578;-4.520;2022-12-19T05:13:42;22.50;46.50
75615;DHT22;64199;48.578;-4.520;2022-12-19T05:16:10;22.50;46.50
75615;DHT22;64199;48.578;-4.520;2022-12-19T05:18:38;22.50;46.60
75615;DHT22;64199;48.578;-4.520;2022-12-19T05:21:04;22.40;46.50
75615;DHT22;64199;48.578;-4.520;2022-12-19T05:23:31;22.40;46.50
75615;DHT22;64199;48.578;-4.520;2022-12-19T05:25:58;22.40;46.60
75615;DHT22;64199;48.578;-4.520;2022-12-19T05:28:24;22.30;46.50
75615;DHT22;64199;48.578;-4.520;2022-12-19T05:30:49;22.30;46.50
75615;DHT22;64199;48.578;-4.520;2022-12-19T05:33:15;22.30;46.50
75615;DHT22;64199;48.578;-4.520;2022-12-19T05:35:41;22.20;46.50
75615;DHT22;64199;48.578;-4.520;2022-12-19T05:38:07;22.20;46.50
75615;DHT22;64199;48.578;-4.520;2022-12-19T05:40:33;22.10;46.40
75615;DHT22;64199;48.578;-4.520;2022-12-19T05:42:59;22.10;46.40
75615;DHT22;64199;48.578;-4.520;2022-12-19T05:45:32;22.10;46.40
75615;DHT22;64199;48.578;-4.520;2022-12-19T05:47:58;22.00;46.40
75615;DHT22;64199;48.578;-4.520;2022-12-19T05:50:24;22.00;46.40
75615;DHT22;64199;48.578;-4.520;2022-12-19T05:52:50;22.00;46.40
75615;DHT22;64199;48.578;-4.520;2022-12-19T05:55:15;22.00;46.50
75615;DHT22;64199;48.578;-4.520;2022-12-19T05:57:42;21.90;46.50
75615;DHT22;64199;48.578;-4.520;2022-12-19T06:00:08;21.80;46.40
75615;DHT22;64199;48.578;-4.520;2022-12-19T06:02:34;21.80;46.50
75615;DHT22;64199;48.578;-4.520;2022-12-19T06:05:00;21.80;46.50
75615;DHT22;64199;48.578;-4.520;2022-12-19T06:07:26;21.60;46.60
75615;DHT22;64199;48.578;-4.520;2022-12-19T06:09:52;21.60;46.80
75615;DHT22;64199;48.578;-4.520;2022-12-19T06:12:18;21.50;46.90
75615;DHT22;64199;48.578;-4.520;2022-12-19T06:14:43;21.40;47.00
75615;DHT22;64199;48.578;-4.520;2022-12-19T06:17:10;21.30;47.10
75615;DHT22;64199;48.578;-4.520;2022-12-19T06:19:36;21.30;47.10
75615;DHT22;64199;48.578;-4.520;2022-12-19T06:22:02;21.30;47.20
75615;DHT22;64199;48.578;-4.520;2022-12-19T06:24:30;21.20;47.20
75615;DHT22;64199;48.578;-4.520;2022-12-19T06:26:56;21.20;47.40
75615;DHT22;64199;48.578;-4.520;2022-12-19T06:29:22;21.20;47.40
75615;DHT22;64199;48.578;-4.520;2022-12-19T06:31:48;21.20;47.40
75615;DHT22;64199;48.578;-4.520;2022-12-19T06:34:16;21.10;47.40
75615;DHT22;64199;48.578;-4.520;2022-12-19T06:36:42;21.00;47.40
75615;DHT22;64199;48.578;-4.520;2022-12-19T06:39:11;21.10;47.50
75615;DHT22;64199;48.578;-4.520;2022-12-19T06:41:38;21.00;47.60
75615;DHT22;64199;48.578;-4.520;2022-12-19T06:44:23;21.00;47.60
75615;DHT22;64199;48.578;-4.520;2022-12-19T06:46:52;20.90;47.60
75615;DHT22;64199;48.578;-4.520;2022-12-19T06:49:21;20.90;47.70
75615;DHT22;64199;48.578;-4.520;2022-12-19T06:51:47;20.90;47.50
75615;DHT22;64199;48.578;-4.520;2022-12-19T06:54:17;20.90;47.40
75615;DHT22;64199;48.578;-4.520;2022-12-19T06:56:43;21.00;47.30
75615;DHT22;64199;48.578;-4.520;2022-12-19T06:59:14;21.00;47.20
75615;DHT22;64199;48.578;-4.520;2022-12-19T07:04:30;20.90;47.10
75615;DHT22;64199;48.578;-4.520;2022-12-19T07:06:58;20.90;47.20
75615;DHT22;64199;48.578;-4.520;2022-12-19T07:09:30;20.90;47.20
75615;DHT22;64199;48.578;-4.520;2022-12-19T07:11:57;20.90;47.20
75615;DHT22;64199;48.578;-4.520;2022-12-19T07:14:23;20.80;47.80
75615;DHT22;64199;48.578;-4.520;2022-12-19T07:16:51;20.80;47.30
75615;DHT22;64199;48.578;-4.520;2022-12-19T07:19:18;20.80;47.40
75615;DHT22;64199;48.578;-4.520;2022-12-19T07:21:44;20.70;47.60
75615;DHT22;64199;48.578;-4.520;2022-12-19T07:24:11;20.70;47.80
75615;DHT22;64199;48.578;-4.520;2022-12-19T07:26:40;20.70;48.00
75615;DHT22;64199;48.578;-4.520;2022-12-19T07:29:07;20.80;48.20
75615;DHT22;64199;48.578;-4.520;2022-12-19T07:31:33;20.80;48.30
75615;DHT22;64199;48.578;-4.520;2022-12-19T07:33:59;20.80;48.40
75615;DHT22;64199;48.578;-4.520;2022-12-19T07:36:25;20.80;48.40
75615;DHT22;64199;48.578;-4.520;2022-12-19T07:38:51;20.80;48.40
75615;DHT22;64199;48.578;-4.520;2022-12-19T07:41:17;20.80;48.50
75615;DHT22;64199;48.578;-4.520;2022-12-19T07:43:42;20.90;48.50
75615;DHT22;64199;48.578;-4.520;2022-12-19T07:46:10;20.90;48.60
75615;DHT22;64199;48.578;-4.520;2022-12-19T07:48:36;20.90;48.50
75615;DHT22;64199;48.578;-4.520;2022-12-19T07:51:03;20.90;48.60
75615;DHT22;64199;48.578;-4.520;2022-12-19T07:53:30;21.00;48.60
75615;DHT22;64199;48.578;-4.520;2022-12-19T07:55:56;21.00;48.60
75615;DHT22;64199;48.578;-4.520;2022-12-19T07:58:22;21.00;48.60
75615;DHT22;64199;48.578;-4.520;2022-12-19T08:00:55;21.00;48.50
75615;DHT22;64199;48.578;-4.520;2022-12-19T08:03:23;21.00;48.50
75615;DHT22;64199;48.578;-4.520;2022-12-19T08:05:59;21.10;48.50
75615;DHT22;64199;48.578;-4.520;2022-12-19T08:08:25;21.10;48.50
75615;DHT22;64199;48.578;-4.520;2022-12-19T08:10:53;21.10;48.50
75615;DHT22;64199;48.578;-4.520;2022-12-19T08:13:22;21.10;48.50
75615;DHT22;64199;48.578;-4.520;2022-12-19T08:15:48;21.10;48.40
75615;DHT22;64199;48.578;-4.520;2022-12-19T08:18:14;21.10;48.50
75615;DHT22;64199;48.578;-4.520;2022-12-19T08:20:45;21.10;48.50
75615;DHT22;64199;48.578;-4.520;2022-12-19T08:23:11;21.10;48.60
75615;DHT22;64199;48.578;-4.520;2022-12-19T08:25:37;21.20;48.70
75615;DHT22;64199;48.578;-4.520;2022-12-19T08:28:03;21.20;48.70
75615;DHT22;64199;48.578;-4.520;2022-12-19T08:30:29;21.20;48.70
75615;DHT22;64199;48.578;-4.520;2022-12-19T08:32:55;21.20;48.70
75615;DHT22;64199;48.578;-4.520;2022-12-19T08:35:23;21.30;48.70
75615;DHT22;64199;48.578;-4.520;2022-12-19T08:37:49;21.20;48.70
75615;DHT22;64199;48.578;-4.520;2022-12-19T08:40:15;21.30;48.70
75615;DHT22;64199;48.578;-4.520;2022-12-19T08:42:41;21.30;48.70
75615;DHT22;64199;48.578;-4.520;2022-12-19T08:45:08;21.40;48.70
75615;DHT22;64199;48.578;-4.520;2022-12-19T08:47:33;21.30;48.70
75615;DHT22;64199;48.578;-4.520;2022-12-19T08:50:00;21.40;48.70
75615;DHT22;64199;48.578;-4.520;2022-12-19T08:52:26;21.40;48.70
75615;DHT22;64199;48.578;-4.520;2022-12-19T08:54:52;21.40;48.70
75615;DHT22;64199;48.578;-4.520;2022-12-19T08:57:18;21.50;48.70
75615;DHT22;64199;48.578;-4.520;2022-12-19T08:59:43;21.50;48.70
75615;DHT22;64199;48.578;-4.520;2022-12-19T09:02:13;21.50;48.70
75615;DHT22;64199;48.578;-4.520;2022-12-19T09:08:27;21.50;48.60
75615;DHT22;64199;48.578;-4.520;2022-12-19T09:11:08;21.60;48.70
75615;DHT22;64199;48.578;-4.520;2022-12-19T09:13:35;21.50;48.60
75615;DHT22;64199;48.578;-4.520;2022-12-19T09:16:13;21.60;48.60
75615;DHT22;64199;48.578;-4.520;2022-12-19T09:18:40;21.60;48.60
75615;DHT22;64199;48.578;-4.520;2022-12-19T09:21:06;21.60;48.50
75615;DHT22;64199;48.578;-4.520;2022-12-19T09:23:33;21.70;48.60
75615;DHT22;64199;48.578;-4.520;2022-12-19T09:26:08;21.60;48.50
75615;DHT22;64199;48.578;-4.520;2022-12-19T09:28:35;21.60;48.50
75615;DHT22;64199;48.578;-4.520;2022-12-19T09:31:07;21.70;48.50
75615;DHT22;64199;48.578;-4.520;2022-12-19T09:33:34;21.70;48.50
75615;DHT22;64199;48.578;-4.520;2022-12-19T09:36:01;21.70;48.50
75615;DHT22;64199;48.578;-4.520;2022-12-19T09:38:28;21.70;48.50
75615;DHT22;64199;48.578;-4.520;2022-12-19T09:48:55;21.90;48.50
75615;DHT22;64199;48.578;-4.520;2022-12-19T10:00:10;22.00;48.40
75615;DHT22;64199;48.578;-4.520;2022-12-19T10:02:47;22.00;48.40
75615;DHT22;64199;48.578;-4.520;2022-12-19T10:07:51;22.00;48.40
75615;DHT22;64199;48.578;-4.520;2022-12-19T10:10:26;22.00;48.40
75615;DHT22;64199;48.578;-4.520;2022-12-19T10:13:40;22.00;48.50
75615;DHT22;64199;48.578;-4.520;2022-12-19T10:15:54;22.10;48.50
75615;DHT22;64199;48.578;-4.520;2022-12-19T10:18:28;22.10;48.50
75615;DHT22;64199;48.578;-4.520;2022-12-19T10:21:05;22.10;48.50
75615;DHT22;64199;48.578;-4.520;2022-12-19T10:26:52;22.20;49.00
75615;DHT22;64199;48.578;-4.520;2022-12-19T10:32:34;22.20;48.30
75615;DHT22;64199;48.578;-4.520;2022-12-19T10:35:04;22.20;48.20
75615;DHT22;64199;48.578;-4.520;2022-12-19T10:38:07;22.20;48.20
75615;DHT22;64199;48.578;-4.520;2022-12-19T10:40:48;22.30;48.20
75615;DHT22;64199;48.578;-4.520;2022-12-19T10:43:39;22.30;48.20
75615;DHT22;64199;48.578;-4.520;2022-12-19T10:46:17;22.30;48.20
75615;DHT22;64199;48.578;-4.520;2022-12-19T10:48:46;22.30;48.10
75615;DHT22;64199;48.578;-4.520;2022-12-19T10:51:21;22.30;48.10
75615;DHT22;64199;48.578;-4.520;2022-12-19T10:53:56;22.30;48.00
75615;DHT22;64199;48.578;-4.520;2022-12-19T10:56:24;22.30;48.00
75615;DHT22;64199;48.578;-4.520;2022-12-19T10:58:57;22.30;48.00
75615;DHT22;64199;48.578;-4.520;2022-12-19T11:01:29;22.30;48.00
75615;DHT22;64199;48.578;-4.520;2022-12-19T11:06:47;22.20;47.90
75615;DHT22;64199;48.578;-4.520;2022-12-19T11:09:21;22.20;47.90
75615;DHT22;64199;48.578;-4.520;2022-12-19T11:14:50;22.20;47.90
75615;DHT22;64199;48.578;-4.520;2022-12-19T11:17:34;22.10;47.80
75615;DHT22;64199;48.578;-4.520;2022-12-19T11:20:21;22.10;47.90
75615;DHT22;64199;48.578;-4.520;2022-12-19T11:22:58;22.00;47.80
75615;DHT22;64199;48.578;-4.520;2022-12-19T11:25:40;22.00;48.40
75615;DHT22;64199;48.578;-4.520;2022-12-19T11:28:32;22.00;47.80
75615;DHT22;64199;48.578;-4.520;2022-12-19T11:31:21;21.90;47.90
75615;DHT22;64199;48.578;-4.520;2022-12-19T11:34:15;21.90;48.00
75615;DHT22;64199;48.578;-4.520;2022-12-19T11:39:21;21.80;48.00
75615;DHT22;64199;48.578;-4.520;2022-12-19T11:47:51;21.70;48.00
75615;DHT22;64199;48.578;-4.520;2022-12-19T11:50:26;21.70;47.90
75615;DHT22;64199;48.578;-4.520;2022-12-19T11:56:00;21.60;47.90
75615;DHT22;64199;48.578;-4.520;2022-12-19T11:58:28;21.50;47.90
75615;DHT22;64199;48.578;-4.520;2022-12-19T12:06:11;21.50;48.00
75615;DHT22;64199;48.578;-4.520;2022-12-19T12:08:51;21.50;48.00
75615;DHT22;64199;48.578;-4.520;2022-12-19T12:11:32;21.40;48.00
75615;DHT22;64199;48.578;-4.520;2022-12-19T12:14:13;21.40;47.90
75615;DHT22;64199;48.578;-4.520;2022-12-19T12:19:58;21.30;48.00
75615;DHT22;64199;48.578;-4.520;2022-12-19T12:23:01;21.30;48.00
75615;DHT22;64199;48.578;-4.520;2022-12-19T12:25:53;21.30;48.10
75615;DHT22;64199;48.578;-4.520;2022-12-19T12:31:10;21.20;48.40
75615;DHT22;64199;48.578;-4.520;2022-12-19T12:36:38;21.20;48.50
75615;DHT22;64199;48.578;-4.520;2022-12-19T12:44:35;21.00;48.50
75615;DHT22;64199;48.578;-4.520;2022-12-19T12:47:22;21.00;48.60
75615;DHT22;64199;48.578;-4.520;2022-12-19T12:50:00;21.00;48.70
75615;DHT22;64199;48.578;-4.520;2022-12-19T12:52:36;21.00;48.70
75615;DHT22;64199;48.578;-4.520;2022-12-19T12:55:05;20.90;48.70
75615;DHT22;64199;48.578;-4.520;2022-12-19T12:57:37;20.90;48.60
75615;DHT22;64199;48.578;-4.520;2022-12-19T13:02:49;20.90;48.60
75615;DHT22;64199;48.578;-4.520;2022-12-19T13:05:39;20.80;48.40
75615;DHT22;64199;48.578;-4.520;2022-12-19T13:22:45;20.60;48.50
75615;DHT22;64199;48.578;-4.520;2022-12-19T13:30:29;20.60;48.70
75615;DHT22;64199;48.578;-4.520;2022-12-19T13:38:23;20.50;48.80
75615;DHT22;64199;48.578;-4.520;2022-12-19T13:40:57;20.50;48.90
75615;DHT22;64199;48.578;-4.520;2022-12-19T13:43:35;20.50;48.80
75615;DHT22;64199;48.578;-4.520;2022-12-19T13:46:37;20.50;48.80
75615;DHT22;64199;48.578;-4.520;2022-12-19T13:49:12;20.50;49.00
75615;DHT22;64199;48.578;-4.520;2022-12-19T13:51:51;20.50;49.20
75615;DHT22;64199;48.578;-4.520;2022-12-19T13:54:29;20.40;49.30
75615;DHT22;64199;48.578;-4.520;2022-12-19T13:57:00;20.50;49.50
75615;DHT22;64199;48.578;-4.520;2022-12-19T13:59:32;20.50;49.60
75615;DHT22;64199;48.578;-4.520;2022-12-19T14:02:06;20.50;49.60
75615;DHT22;64199;48.578;-4.520;2022-12-19T14:04:39;20.60;49.60
75615;DHT22;64199;48.578;-4.520;2022-12-19T14:09:52;20.60;49.70
75615;DHT22;64199;48.578;-4.520;2022-12-19T14:12:24;20.60;49.70
75615;DHT22;64199;48.578;-4.520;2022-12-19T14:17:49;20.70;49.80
75615;DHT22;64199;48.578;-4.520;2022-12-19T14:20:26;20.70;49.80
75615;DHT22;64199;48.578;-4.520;2022-12-19T14:22:57;20.80;50.00
75615;DHT22;64199;48.578;-4.520;2022-12-19T14:25:33;20.80;50.00
75615;DHT22;64199;48.578;-4.520;2022-12-19T14:28:03;20.80;50.00
75615;DHT22;64199;48.578;-4.520;2022-12-19T14:30:32;20.90;50.00
75615;DHT22;64199;48.578;-4.520;2022-12-19T14:33:05;20.90;50.00
75615;DHT22;64199;48.578;-4.520;2022-12-19T14:35:52;20.90;50.00
75615;DHT22;64199;48.578;-4.520;2022-12-19T14:38:21;21.00;50.10
75615;DHT22;64199;48.578;-4.520;2022-12-19T14:40:48;21.00;50.00
75615;DHT22;64199;48.578;-4.520;2022-12-19T14:43:20;21.00;50.00
75615;DHT22;64199;48.578;-4.520;2022-12-19T14:48:50;21.10;50.10
75615;DHT22;64199;48.578;-4.520;2022-12-19T14:51:37;21.10;50.00
75615;DHT22;64199;48.578;-4.520;2022-12-19T14:56:50;21.20;50.10
75615;DHT22;64199;48.578;-4.520;2022-12-19T15:02:01;21.30;50.10
75615;DHT22;64199;48.578;-4.520;2022-12-19T15:04:38;21.20;50.00
75615;DHT22;64199;48.578;-4.520;2022-12-19T15:07:07;21.30;50.10
75615;DHT22;64199;48.578;-4.520;2022-12-19T15:12:32;21.30;50.00
75615;DHT22;64199;48.578;-4.520;2022-12-19T15:15:33;21.40;50.00
75615;DHT22;64199;48.578;-4.520;2022-12-19T15:18:03;21.40;50.00
75615;DHT22;64199;48.578;-4.520;2022-12-19T15:20:28;21.40;49.90
75615;DHT22;64199;48.578;-4.520;2022-12-19T15:22:54;21.50;49.90
75615;DHT22;64199;48.578;-4.520;2022-12-19T15:25:23;21.50;49.90
75615;DHT22;64199;48.578;-4.520;2022-12-19T15:27:49;21.50;49.80
75615;DHT22;64199;48.578;-4.520;2022-12-19T15:30:17;21.60;49.80
75615;DHT22;64199;48.578;-4.520;2022-12-19T15:32:43;21.50;49.80
75615;DHT22;64199;48.578;-4.520;2022-12-19T15:35:12;21.60;49.70
75615;DHT22;64199;48.578;-4.520;2022-12-19T15:37:38;21.60;49.70
75615;DHT22;64199;48.578;-4.520;2022-12-19T15:40:04;21.60;49.70
75615;DHT22;64199;48.578;-4.520;2022-12-19T15:42:31;21.60;49.70
75615;DHT22;64199;48.578;-4.520;2022-12-19T15:44:57;21.60;49.70
75615;DHT22;64199;48.578;-4.520;2022-12-19T15:47:35;21.70;49.70
75615;DHT22;64199;48.578;-4.520;2022-12-19T15:50:17;21.70;49.60
75615;DHT22;64199;48.578;-4.520;2022-12-19T15:52:44;21.70;49.60
75615;DHT22;64199;48.578;-4.520;2022-12-19T15:55:17;21.80;49.60
75615;DHT22;64199;48.578;-4.520;2022-12-19T15:57:56;21.80;49.70
75615;DHT22;64199;48.578;-4.520;2022-12-19T16:00:26;21.80;49.60
75615;DHT22;64199;48.578;-4.520;2022-12-19T16:02:53;21.80;49.60
75615;DHT22;64199;48.578;-4.520;2022-12-19T16:05:21;21.80;49.60
75615;DHT22;64199;48.578;-4.520;2022-12-19T16:07:47;21.90;49.70
75615;DHT22;64199;48.578;-4.520;2022-12-19T16:10:14;21.90;49.70
75615;DHT22;64199;48.578;-4.520;2022-12-19T16:12:48;21.90;49.70
75615;DHT22;64199;48.578;-4.520;2022-12-19T16:15:30;21.90;49.70
75615;DHT22;64199;48.578;-4.520;2022-12-19T16:17:57;22.00;49.60
75615;DHT22;64199;48.578;-4.520;2022-12-19T16:20:27;22.00;49.50
75615;DHT22;64199;48.578;-4.520;2022-12-19T16:22:53;22.00;49.40
75615;DHT22;64199;48.578;-4.520;2022-12-19T16:25:20;22.00;49.40
75615;DHT22;64199;48.578;-4.520;2022-12-19T16:27:53;22.00;49.40
75615;DHT22;64199;48.578;-4.520;2022-12-19T16:30:29;22.00;49.40
75615;DHT22;64199;48.578;-4.520;2022-12-19T16:32:56;22.00;49.40
75615;DHT22;64199;48.578;-4.520;2022-12-19T16:35:23;21.90;49.40
75615;DHT22;64199;48.578;-4.520;2022-12-19T16:37:52;21.90;49.40
75615;DHT22;64199;48.578;-4.520;2022-12-19T16:40:21;21.90;49.50
75615;DHT22;64199;48.578;-4.520;2022-12-19T16:42:48;21.90;49.50
75615;DHT22;64199;48.578;-4.520;2022-12-19T16:45:24;21.90;49.50
75615;DHT22;64199;48.578;-4.520;2022-12-19T16:47:50;21.90;49.50
75615;DHT22;64199;48.578;-4.520;2022-12-19T16:50:28;21.80;49.40
75615;DHT22;64199;48.578;-4.520;2022-12-19T16:52:57;21.80;49.50
75615;DHT22;64199;48.578;-4.520;2022-12-19T16:55:31;21.70;49.30
75615;DHT22;64199;48.578;-4.520;2022-12-19T16:57:59;21.70;49.40
75615;DHT22;64199;48.578;-4.520;2022-12-19T17:00:25;21.70;49.40
75615;DHT22;64199;48.578;-4.520;2022-12-19T17:02:54;21.70;49.40
75615;DHT22;64199;48.578;-4.520;2022-12-19T17:05:30;21.70;49.40
75615;DHT22;64199;48.578;-4.520;2022-12-19T17:07:57;21.60;49.40
75615;DHT22;64199;48.578;-4.520;2022-12-19T17:10:29;21.60;49.40
75615;DHT22;64199;48.578;-4.520;2022-12-19T17:12:56;21.60;49.40
75615;DHT22;64199;48.578;-4.520;2022-12-19T17:15:26;21.60;49.40
75615;DHT22;64199;48.578;-4.520;2022-12-19T17:17:56;21.60;49.50
75615;DHT22;64199;48.578;-4.520;2022-12-19T17:20:25;21.50;49.50
75615;DHT22;64199;48.578;-4.520;2022-12-19T17:22:52;21.60;49.50
75615;DHT22;64199;48.578;-4.520;2022-12-19T17:25:21;21.50;49.50
75615;DHT22;64199;48.578;-4.520;2022-12-19T17:27:48;21.50;49.60
75615;DHT22;64199;48.578;-4.520;2022-12-19T17:30:14;21.50;49.60
75615;DHT22;64199;48.578;-4.520;2022-12-19T17:32:41;21.40;49.50
75615;DHT22;64199;48.578;-4.520;2022-12-19T17:35:19;21.40;49.50
75615;DHT22;64199;48.578;-4.520;2022-12-19T17:37:53;21.40;49.50
75615;DHT22;64199;48.578;-4.520;2022-12-19T17:40:26;21.40;49.50
75615;DHT22;64199;48.578;-4.520;2022-12-19T17:42:53;21.30;49.80
75615;DHT22;64199;48.578;-4.520;2022-12-19T17:45:19;21.30;49.50
75615;DHT22;64199;48.578;-4.520;2022-12-19T17:47:47;21.30;49.40
75615;DHT22;64199;48.578;-4.520;2022-12-19T17:50:25;21.20;49.40
75615;DHT22;64199;48.578;-4.520;2022-12-19T17:52:52;21.30;49.50
75615;DHT22;64199;48.578;-4.520;2022-12-19T17:55:22;21.20;49.40
75615;DHT22;64199;48.578;-4.520;2022-12-19T17:57:49;21.20;49.40